createdAt,value
2022-10-31T00:01:46.091Z,1009.1
2022-10-31T00:06:51.205Z,1009.1
2022-10-31T00:11:57.316Z,1009.1
2022-10-31T00:17:03.415Z,1009.1
2022-10-31T00:22:09.501Z,1009.2
2022-10-31T00:27:15.590Z,1009.2
2022-10-31T00:32:21.706Z,1009.2
2022-10-31T00:37:27.795Z,1009.3
2022-10-31T00:47:39.991Z,1009.4
2022-10-31T00:52:46.090Z,1009.5
2022-10-31T00:57:52.200Z,1009.5
2022-10-31T01:02:58.268Z,1009.5
2022-10-31T01:08:04.403Z,1009.6
2022-10-31T01:13:09.531Z,1009.5
2022-10-31T01:18:15.596Z,1009.5
2022-10-31T01:23:21.699Z,1009.5
2022-10-31T01:28:27.765Z,1009.6
2022-10-31T01:33:33.871Z,1009.6
2022-10-31T01:38:39.978Z,1009.5
2022-10-31T01:43:46.075Z,1009.6
2022-10-31T01:48:52.173Z,1009.5
2022-10-31T01:53:58.258Z,1009.6
2022-10-31T01:59:04.399Z,1009.6
2022-10-31T02:04:10.483Z,1009.6
2022-10-31T02:09:16.588Z,1009.5
2022-10-31T02:14:22.730Z,1009.7
2022-10-31T02:19:27.765Z,1009.7
2022-10-31T02:24:33.845Z,1009.7
2022-10-31T02:29:39.969Z,1009.9
2022-10-31T02:34:46.108Z,1009.8
2022-10-31T02:39:52.150Z,1009.9
2022-10-31T02:44:58.254Z,1009.8
2022-10-31T02:50:04.352Z,1009.8
2022-10-31T02:55:10.474Z,1009.9
2022-10-31T03:00:16.537Z,1009.9
2022-10-31T03:05:22.638Z,1009.9
2022-10-31T03:10:28.735Z,1009.9
2022-10-31T03:15:34.863Z,1010
2022-10-31T03:20:40.928Z,1010
2022-10-31T03:25:46.090Z,1010.1
2022-10-31T03:30:52.137Z,1010.1
2022-10-31T03:35:58.234Z,1010.1
2022-10-31T03:41:04.346Z,1010.2
2022-10-31T03:46:10.424Z,1010.2
2022-10-31T03:51:16.541Z,1010.3
2022-10-31T03:56:22.671Z,1010.3
2022-10-31T04:01:28.744Z,1010.3
2022-10-31T04:06:34.827Z,1010.4
2022-10-31T04:11:40.939Z,1010.4
2022-10-31T04:16:47.007Z,1010.5
2022-10-31T04:21:53.134Z,1010.4
2022-10-31T04:26:59.227Z,1010.4
2022-10-31T04:32:04.347Z,1010.4
2022-10-31T04:37:10.508Z,1010.6
2022-10-31T04:42:16.526Z,1010.6
2022-10-31T04:47:22.609Z,1010.7
2022-10-31T04:52:28.727Z,1010.6
2022-10-31T04:57:34.843Z,1010.6
2022-10-31T05:02:40.911Z,1010.6
2022-10-31T05:07:46.997Z,1010.6
2022-10-31T05:12:53.097Z,1010.6
2022-10-31T05:17:59.237Z,1010.6
2022-10-31T05:23:05.294Z,1010.7
2022-10-31T05:28:11.387Z,1010.6
2022-10-31T05:33:17.495Z,1010.5
2022-10-31T05:38:22.609Z,1010.4
2022-10-31T05:43:28.700Z,1010.5
2022-10-31T05:48:34.796Z,1010.5
2022-10-31T05:53:40.923Z,1010.6
2022-10-31T05:58:47.033Z,1010.6
2022-10-31T06:03:53.105Z,1010.7
2022-10-31T06:08:59.202Z,1010.8
2022-10-31T06:14:05.318Z,1010.8
2022-10-31T06:19:11.406Z,1010.8
2022-10-31T06:24:17.483Z,1010.9
2022-10-31T06:29:23.582Z,1011
2022-10-31T06:34:29.667Z,1011.1
2022-10-31T06:39:35.770Z,1011.2
2022-10-31T06:44:40.931Z,1011.2
2022-10-31T06:49:46.980Z,1011.1
2022-10-31T06:54:53.111Z,1011.2
2022-10-31T06:59:59.178Z,1011.3
2022-10-31T07:05:05.275Z,1011.3
2022-10-31T07:10:11.415Z,1011.4
2022-10-31T07:15:17.475Z,1011.4
2022-10-31T07:20:23.592Z,1011.5
2022-10-31T07:25:29.764Z,1011.5
2022-10-31T07:30:35.752Z,1011.5
2022-10-31T07:35:41.963Z,1011.6
2022-10-31T07:40:47.944Z,1011.6
2022-10-31T07:45:54.104Z,1011.5
2022-10-31T07:50:59.180Z,1011.5
2022-10-31T07:56:05.323Z,1011.5
2022-10-31T08:01:11.358Z,1011.5
2022-10-31T08:06:17.447Z,1011.5
2022-10-31T08:11:23.628Z,1011.5
2022-10-31T08:16:29.640Z,1011.5
2022-10-31T08:21:35.722Z,1011.5
2022-10-31T08:26:41.892Z,1011.5
2022-10-31T08:31:47.932Z,1011.4
2022-10-31T08:36:54.076Z,1011.5
2022-10-31T08:42:00.137Z,1011.5
2022-10-31T08:47:06.238Z,1011.5
2022-10-31T08:52:12.363Z,1011.4
2022-10-31T08:57:17.450Z,1011.3
2022-10-31T09:02:23.518Z,1011.3
2022-10-31T09:07:29.641Z,1011.2
2022-10-31T09:12:35.775Z,1011.2
2022-10-31T09:17:41.820Z,1011.1
2022-10-31T09:22:47.920Z,1011.1
2022-10-31T09:27:54.013Z,1011.1
2022-10-31T09:33:00.149Z,1011.1
2022-10-31T09:38:06.208Z,1011
2022-10-31T09:43:12.351Z,1011
2022-10-31T09:48:18.435Z,1011
2022-10-31T09:53:24.487Z,1011
2022-10-31T09:58:30.613Z,1011
2022-10-31T10:03:35.720Z,1011
2022-10-31T10:08:41.795Z,1010.9
2022-10-31T10:13:47.893Z,1011
2022-10-31T10:18:53.984Z,1010.9
2022-10-31T10:24:00.109Z,1010.9
2022-10-31T10:29:06.180Z,1010.9
2022-10-31T10:34:12.267Z,1010.8
2022-10-31T10:39:18.364Z,1010.7
2022-10-31T10:44:24.456Z,1010.7
2022-10-31T10:49:30.604Z,1010.7
2022-10-31T10:54:36.652Z,1010.7
2022-10-31T10:59:42.742Z,1010.7
2022-10-31T11:04:48.858Z,1010.6
2022-10-31T11:09:53.988Z,1010.6
2022-10-31T11:15:00.170Z,1010.6
2022-10-31T11:20:06.340Z,1010.5
2022-10-31T11:25:12.352Z,1010.4
2022-10-31T11:30:18.349Z,1010.3
2022-10-31T11:35:24.573Z,1010.3
2022-10-31T11:40:30.571Z,1010.2
2022-10-31T11:45:36.665Z,1010.2
2022-10-31T11:50:42.744Z,1010.3
2022-10-31T11:55:48.844Z,1010.3
2022-10-31T12:00:54.922Z,1010.2
2022-10-31T12:06:01.104Z,1010.1
2022-10-31T12:11:07.125Z,1010.1
2022-10-31T12:16:12.376Z,1010
2022-10-31T12:21:18.436Z,1009.9
2022-10-31T12:26:24.438Z,1009.8
2022-10-31T12:31:30.499Z,1009.8
2022-10-31T12:36:36.629Z,1009.8
2022-10-31T12:41:42.757Z,1009.8
2022-10-31T12:46:48.819Z,1009.7
2022-10-31T12:51:54.921Z,1009.6
2022-10-31T12:57:01.020Z,1009.6
2022-10-31T13:02:07.137Z,1009.5
2022-10-31T13:07:13.168Z,1009.4
2022-10-31T13:12:19.332Z,1009.4
2022-10-31T13:17:25.443Z,1009.3
2022-10-31T13:22:30.479Z,1009.3
2022-10-31T13:27:36.691Z,1009.3
2022-10-31T13:32:42.832Z,1009.3
2022-10-31T13:37:48.859Z,1009.2
2022-10-31T13:42:54.993Z,1009.2
2022-10-31T13:48:00.995Z,1009.2
2022-10-31T13:53:07.269Z,1009
2022-10-31T13:58:13.226Z,1009
2022-10-31T14:03:19.384Z,1008.9
2022-10-31T14:08:25.497Z,1008.9
2022-10-31T14:13:31.592Z,1008.9
2022-10-31T14:18:37.610Z,1008.8
2022-10-31T14:23:43.749Z,1008.8
2022-10-31T14:28:48.844Z,1008.8
2022-10-31T14:33:54.902Z,1008.7
2022-10-31T14:39:00.934Z,1008.7
2022-10-31T14:44:07.113Z,1008.6
2022-10-31T14:49:13.397Z,1008.6
2022-10-31T14:54:19.246Z,1008.6
2022-10-31T14:59:25.352Z,1008.5
2022-10-31T15:04:31.392Z,1008.5
2022-10-31T15:09:37.496Z,1008.4
2022-10-31T15:14:43.601Z,1008.3
2022-10-31T15:19:49.670Z,1008.3
2022-10-31T15:24:55.762Z,1008.3
2022-10-31T15:35:08.019Z,1008.3
2022-10-31T15:40:13.113Z,1008.2
2022-10-31T15:45:19.156Z,1008.2
2022-10-31T15:50:25.253Z,1008.2
2022-10-31T15:55:31.379Z,1008.1
2022-10-31T16:00:37.475Z,1008.1
2022-10-31T16:05:42.558Z,1008
2022-10-31T16:10:48.663Z,1008
2022-10-31T16:15:54.774Z,1008
2022-10-31T16:21:00.857Z,1007.9
2022-10-31T16:26:06.955Z,1007.9
2022-10-31T16:31:13.050Z,1008
2022-10-31T16:36:19.172Z,1007.9
2022-10-31T16:41:25.258Z,1007.9
2022-10-31T16:46:31.407Z,1007.9
2022-10-31T16:51:37.439Z,1007.8
2022-10-31T16:56:43.537Z,1007.8
2022-10-31T17:01:49.688Z,1007.9
2022-10-31T17:06:55.765Z,1007.8
2022-10-31T17:12:00.847Z,1007.9
2022-10-31T17:17:07.019Z,1007.8
2022-10-31T17:22:13.048Z,1007.8
2022-10-31T17:27:19.143Z,1007.9
2022-10-31T17:32:25.245Z,1007.8
2022-10-31T17:37:31.340Z,1007.9
2022-10-31T17:42:37.449Z,1007.8
2022-10-31T17:47:43.551Z,1007.8
2022-10-31T17:52:49.637Z,1007.8
2022-10-31T17:57:55.730Z,1007.8
2022-10-31T18:03:01.889Z,1007.7
2022-10-31T18:08:07.944Z,1007.7
2022-10-31T18:13:14.016Z,1007.5
2022-10-31T18:18:19.141Z,1007.5
2022-10-31T18:23:25.243Z,1007.5
2022-10-31T18:28:31.338Z,1007.5
2022-10-31T18:33:37.437Z,1007.4
2022-10-31T18:38:43.521Z,1007.4
2022-10-31T18:43:49.672Z,1007.3
2022-10-31T18:48:55.781Z,1007.2
2022-10-31T18:54:01.850Z,1007.2
2022-10-31T18:59:08.044Z,1007.2
2022-10-31T19:04:14.041Z,1007.2
2022-10-31T19:09:20.168Z,1007.1
2022-10-31T19:14:26.288Z,1007
2022-10-31T19:19:32.327Z,1006.9
2022-10-31T19:24:37.425Z,1006.9
2022-10-31T19:29:43.535Z,1006.8
2022-10-31T19:34:49.613Z,1006.7
2022-10-31T19:39:55.731Z,1006.7
2022-10-31T19:45:01.807Z,1006.7
2022-10-31T19:50:07.960Z,1006.7
2022-10-31T19:55:14.045Z,1006.7
2022-10-31T20:00:20.114Z,1006.8
2022-10-31T20:05:26.167Z,1006.8
2022-10-31T20:10:32.292Z,1006.6
2022-10-31T20:15:38.392Z,1006.7
2022-10-31T20:20:44.517Z,1006.7
2022-10-31T20:25:50.567Z,1006.6
2022-10-31T20:30:55.667Z,1006.6
2022-10-31T20:36:01.778Z,1006.5
2022-10-31T20:41:07.869Z,1006.4
2022-10-31T20:46:13.959Z,1006.3
2022-10-31T20:51:20.064Z,1006.3
2022-10-31T20:56:26.205Z,1006.2
2022-10-31T21:01:32.322Z,1006.2
2022-10-31T21:06:38.366Z,1006.1
2022-10-31T21:11:44.540Z,1006.1
2022-10-31T21:16:50.599Z,1006.1
2022-10-31T21:21:56.647Z,1006.1
2022-10-31T21:27:02.811Z,1006.2
2022-10-31T21:32:08.891Z,1006
2022-10-31T21:37:14.051Z,1005.8
2022-10-31T21:42:20.077Z,1005.7
2022-10-31T21:47:26.174Z,1005.7
2022-10-31T21:52:32.237Z,1005.7
2022-10-31T21:57:38.340Z,1005.7
2022-10-31T22:02:44.523Z,1005.6
2022-10-31T22:07:50.569Z,1005.5
2022-10-31T22:12:56.641Z,1005.5
2022-10-31T22:18:02.796Z,1005.5
2022-10-31T22:23:08.809Z,1005.2
2022-10-31T22:28:14.917Z,1005.2
2022-10-31T22:33:21.106Z,1005.1
2022-10-31T22:38:27.116Z,1005.1
2022-10-31T22:43:32.293Z,1005
2022-10-31T22:48:38.374Z,1005.1
2022-10-31T22:53:44.510Z,1005
2022-10-31T23:03:56.690Z,1004.8
2022-10-31T23:09:02.744Z,1004.9
2022-10-31T23:14:08.808Z,1004.8
2022-10-31T23:19:14.995Z,1004.8
2022-10-31T23:24:21.004Z,1004.7
2022-10-31T23:29:27.096Z,1004.7
2022-10-31T23:34:33.185Z,1004.5
2022-10-31T23:39:39.308Z,1004.3
2022-10-31T23:44:45.390Z,1004.3
2022-10-31T23:49:50.488Z,1004.2
2022-10-31T23:54:56.628Z,1004.3
